ADDS TAF Board (Experimental) INFO Settings
IDs: Format: Expanded Condensed

KSFO - San Francisco Intl, CA, US

Issued at 1738 UTC 08 Feb 2016
Updated at: 1846 UTC 08 Feb 2016
Time1756Z 08/19Z 08/20Z 08/21Z 08/22Z 08/23Z 09/00Z 09/01Z 09/02Z 09/03Z 09/04Z 09/05Z 09/06Z 09/07Z
Type OBS PRVL PRVL PRVL PRVL PRVL PRVL PRVL PRVL PRVL PRVL PRVL PRVL PRVL
VIS 10 >6 >6 >6 >6 >6 >6 >6 >6 >6 >6 >6 >6 >6
CIG -- -- -- -- -- -- -- -- -- -- -- -- -- --
Cover CLR SKC SKC SKC SKC SKC SKC SKC SKC SKC SKC SKC SKC SKC
FltCat VFR VFR VFR VFR VFR VFR VFR VFR VFR VFR VFR VFR VFR VFR
WX -- -- -- -- -- -- -- -- -- -- -- -- -- --
WDir 140 110 110 110 110 110 110 110 110 80 80 80 80 80
WSpd 8 6 6 6 6 6 6 6 6 8 8 8 8 8
WGst -- -- -- -- -- -- -- -- -- -- -- -- -- --
R01/19
XWnd -7 -6 -6 -6 -6 -6 -6 -6 -6 -6 -6 -6 -6 -6
HWnd -3 1 1 1 1 1 1 1 1 5 5 5 5 5
R10/28
XWnd -3 1 1 1 1 1 1 1 1 5 5 5 5 5
HWnd 7 6 6 6 6 6 6 6 6 6 6 6 6 6

NOTE: TEMPO conditions in [brackets]. Keep in mind TEMPO conditions might be better (lower impact) than prevailing conditions.

Raw TAF
KSFO 081738Z 0818/0924 14008KT P6SM SKC
  FM081900 11006KT P6SM SKC
  FM090300 08008KT P6SM SKC
  FM090800 11004KT P6SM SKC
  FM092200 03004KT P6SM SKC


Raw METAR
KSFO 081756Z 14008KT 10SM CLR 17/08 A3025 RMK AO2 SLP244 T01720078 10172 20106 51009
KSFO 081656Z 13007KT 10SM CLR 14/08 A3024 RMK AO2 SLP240 T01440078
KSFO 081556Z 13008KT 10SM CLR 12/08 A3024 RMK AO2 SLP238 T01220078

METAR Board
Radar Display
Forecast Discussion

TAF Board Legend

Potential Impact
Threat None Slight Moderate High
Visibility (sm) ≥5.1 5.1>X≥3 3>X≥1 <1
Ceiling (100 ft) ≥30.1 30.1>X≥10 10>X≥5 <5
Wind Speed (kt) <10 10≤X<20 20≤X<30 ≥30
Wind Gust (kt) <15 15≤X<25 25≤X<35 ≥35
Weather No Wx Reported VCTS,-TS,-FZRA,SN TS,FZRA +TS,+FZRA,+SN